sensor_id;sensor_type;location;lat;lon;timestamp;temperature;humidity
21906;DHT22;11117;48.644;9.006;2022-12-07T00:01:39;3.00;99.90
21906;DHT22;11117;48.644;9.006;2022-12-07T00:04:07;3.00;99.90
21906;DHT22;11117;48.644;9.006;2022-12-07T00:06:38;3.00;99.90
21906;DHT22;11117;48.644;9.006;2022-12-07T00:09:06;3.20;99.90
21906;DHT22;11117;48.644;9.006;2022-12-07T00:11:32;3.10;99.90
21906;DHT22;11117;48.644;9.006;2022-12-07T00:14:03;3.10;99.90
21906;DHT22;11117;48.644;9.006;2022-12-07T00:16:31;3.10;99.90
21906;DHT22;11117;48.644;9.006;2022-12-07T00:18:58;3.00;99.90
21906;DHT22;11117;48.644;9.006;2022-12-07T00:21:26;3.00;99.90
21906;DHT22;11117;48.644;9.006;2022-12-07T00:23:54;3.10;99.90
21906;DHT22;11117;48.644;9.006;2022-12-07T00:26:24;3.20;99.90
21906;DHT22;11117;48.644;9.006;2022-12-07T00:28:52;3.30;99.90
21906;DHT22;11117;48.644;9.006;2022-12-07T00:31:20;3.20;99.90
21906;DHT22;11117;48.644;9.006;2022-12-07T00:33:46;3.30;99.90
21906;DHT22;11117;48.644;9.006;2022-12-07T00:36:17;3.30;99.90
21906;DHT22;11117;48.644;9.006;2022-12-07T00:38:43;3.50;99.90
21906;DHT22;11117;48.644;9.006;2022-12-07T00:41:12;3.60;99.90
21906;DHT22;11117;48.644;9.006;2022-12-07T00:43:38;3.60;99.90
21906;DHT22;11117;48.644;9.006;2022-12-07T00:46:04;3.50;99.90
21906;DHT22;11117;48.644;9.006;2022-12-07T00:48:30;3.50;99.90
21906;DHT22;11117;48.644;9.006;2022-12-07T00:50:56;3.30;99.90
21906;DHT22;11117;48.644;9.006;2022-12-07T00:53:22;3.30;99.90
21906;DHT22;11117;48.644;9.006;2022-12-07T00:55:48;3.40;99.90
21906;DHT22;11117;48.644;9.006;2022-12-07T00:58:13;3.50;99.90
21906;DHT22;11117;48.644;9.006;2022-12-07T01:00:41;3.60;99.90
21906;DHT22;11117;48.644;9.006;2022-12-07T01:03:07;3.80;99.90
21906;DHT22;11117;48.644;9.006;2022-12-07T01:05:34;3.70;99.90
21906;DHT22;11117;48.644;9.006;2022-12-07T01:08:00;3.70;99.90
21906;DHT22;11117;48.644;9.006;2022-12-07T01:10:26;3.70;99.90
21906;DHT22;11117;48.644;9.006;2022-12-07T01:12:52;3.60;99.90
21906;DHT22;11117;48.644;9.006;2022-12-07T01:15:18;3.50;99.90
21906;DHT22;11117;48.644;9.006;2022-12-07T01:17:44;3.50;99.90
21906;DHT22;11117;48.644;9.006;2022-12-07T01:20:10;3.30;99.90
21906;DHT22;11117;48.644;9.006;2022-12-07T01:22:40;3.40;99.90
21906;DHT22;11117;48.644;9.006;2022-12-07T01:25:07;3.30;99.90
21906;DHT22;11117;48.644;9.006;2022-12-07T01:27:34;3.30;99.90
21906;DHT22;11117;48.644;9.006;2022-12-07T01:30:00;3.20;99.90
21906;DHT22;11117;48.644;9.006;2022-12-07T01:32:27;3.20;99.90
21906;DHT22;11117;48.644;9.006;2022-12-07T01:34:52;3.00;99.90
21906;DHT22;11117;48.644;9.006;2022-12-07T01:37:18;3.20;99.90
21906;DHT22;11117;48.644;9.006;2022-12-07T01:39:43;3.10;99.90
21906;DHT22;11117;48.644;9.006;2022-12-07T01:42:10;3.20;99.90
21906;DHT22;11117;48.644;9.006;2022-12-07T01:47:41;3.00;99.90
21906;DHT22;11117;48.644;9.006;2022-12-07T01:50:07;3.00;99.90
21906;DHT22;11117;48.644;9.006;2022-12-07T01:52:34;2.90;99.90
21906;DHT22;11117;48.644;9.006;2022-12-07T01:55:04;3.00;99.90
21906;DHT22;11117;48.644;9.006;2022-12-07T01:57:33;2.90;99.90
21906;DHT22;11117;48.644;9.006;2022-12-07T02:00:00;2.90;99.90
21906;DHT22;11117;48.644;9.006;2022-12-07T02:02:37;2.80;99.90
21906;DHT22;11117;48.644;9.006;2022-12-07T02:05:05;2.70;99.90
21906;DHT22;11117;48.644;9.006;2022-12-07T02:07:34;2.60;99.90
21906;DHT22;11117;48.644;9.006;2022-12-07T02:10:19;2.60;99.90
21906;DHT22;11117;48.644;9.006;2022-12-07T02:12:47;2.50;99.90
21906;DHT22;11117;48.644;9.006;2022-12-07T02:15:14;2.50;99.90
21906;DHT22;11117;48.644;9.006;2022-12-07T02:17:58;2.50;99.90
21906;DHT22;11117;48.644;9.006;2022-12-07T02:20:39;2.40;99.90
21906;DHT22;11117;48.644;9.006;2022-12-07T02:28:47;2.70;99.90
21906;DHT22;11117;48.644;9.006;2022-12-07T02:31:18;2.70;99.90
21906;DHT22;11117;48.644;9.006;2022-12-07T02:34:07;2.80;99.90
21906;DHT22;11117;48.644;9.006;2022-12-07T02:36:39;3.00;99.90
21906;DHT22;11117;48.644;9.006;2022-12-07T02:41:42;3.10;99.90
21906;DHT22;11117;48.644;9.006;2022-12-07T02:44:12;3.20;99.90
21906;DHT22;11117;48.644;9.006;2022-12-07T02:46:42;3.20;99.90
21906;DHT22;11117;48.644;9.006;2022-12-07T02:49:09;3.20;99.90
21906;DHT22;11117;48.644;9.006;2022-12-07T02:51:39;3.20;99.90
21906;DHT22;11117;48.644;9.006;2022-12-07T02:54:16;3.30;99.90
21906;DHT22;11117;48.644;9.006;2022-12-07T03:05:15;3.10;99.90
21906;DHT22;11117;48.644;9.006;2022-12-07T03:11:10;2.90;99.90
21906;DHT22;11117;48.644;9.006;2022-12-07T03:13:49;2.90;99.90
21906;DHT22;11117;48.644;9.006;2022-12-07T03:16:28;3.00;99.90
21906;DHT22;11117;48.644;9.006;2022-12-07T03:19:13;3.00;99.90
21906;DHT22;11117;48.644;9.006;2022-12-07T03:21:57;3.10;99.90
21906;DHT22;11117;48.644;9.006;2022-12-07T03:24:27;3.20;99.90
21906;DHT22;11117;48.644;9.006;2022-12-07T03:27:13;3.30;99.90
21906;DHT22;11117;48.644;9.006;2022-12-07T03:29:47;3.40;99.90
21906;DHT22;11117;48.644;9.006;2022-12-07T03:32:25;3.40;99.90
21906;DHT22;11117;48.644;9.006;2022-12-07T03:35:22;3.50;99.90
21906;DHT22;11117;48.644;9.006;2022-12-07T03:37:59;3.50;99.90
21906;DHT22;11117;48.644;9.006;2022-12-07T03:40:28;3.50;99.90
21906;DHT22;11117;48.644;9.006;2022-12-07T03:42:55;3.30;99.90
21906;DHT22;11117;48.644;9.006;2022-12-07T03:45:28;3.20;99.90
21906;DHT22;11117;48.644;9.006;2022-12-07T03:53:54;3.30;99.90
21906;DHT22;11117;48.644;9.006;2022-12-07T03:56:21;3.40;99.90
21906;DHT22;11117;48.644;9.006;2022-12-07T03:58:48;3.40;99.90
21906;DHT22;11117;48.644;9.006;2022-12-07T04:01:17;3.50;99.90
21906;DHT22;11117;48.644;9.006;2022-12-07T04:03:42;3.30;99.90
21906;DHT22;11117;48.644;9.006;2022-12-07T04:06:08;3.30;99.90
21906;DHT22;11117;48.644;9.006;2022-12-07T04:08:33;3.20;99.90
21906;DHT22;11117;48.644;9.006;2022-12-07T04:10:59;3.20;99.90
21906;DHT22;11117;48.644;9.006;2022-12-07T04:13:25;3.30;99.90
21906;DHT22;11117;48.644;9.006;2022-12-07T04:15:53;3.30;99.90
21906;DHT22;11117;48.644;9.006;2022-12-07T04:18:19;3.40;99.90
21906;DHT22;11117;48.644;9.006;2022-12-07T04:20:46;3.40;99.90
21906;DHT22;11117;48.644;9.006;2022-12-07T04:23:11;3.40;99.90
21906;DHT22;11117;48.644;9.006;2022-12-07T04:25:37;3.40;99.90
21906;DHT22;11117;48.644;9.006;2022-12-07T04:28:02;3.50;99.90
21906;DHT22;11117;48.644;9.006;2022-12-07T04:30:28;3.40;99.90
21906;DHT22;11117;48.644;9.006;2022-12-07T04:32:54;3.40;99.90
21906;DHT22;11117;48.644;9.006;2022-12-07T04:35:20;3.50;99.90
21906;DHT22;11117;48.644;9.006;2022-12-07T04:37:46;3.50;99.90
21906;DHT22;11117;48.644;9.006;2022-12-07T04:40:13;3.30;99.90
21906;DHT22;11117;48.644;9.006;2022-12-07T04:42:39;3.20;99.90
21906;DHT22;11117;48.644;9.006;2022-12-07T04:45:05;3.00;99.90
21906;DHT22;11117;48.644;9.006;2022-12-07T04:47:31;3.10;99.90
21906;DHT22;11117;48.644;9.006;2022-12-07T04:49:56;3.20;99.90
21906;DHT22;11117;48.644;9.006;2022-12-07T04:52:22;3.20;99.90
21906;DHT22;11117;48.644;9.006;2022-12-07T04:54:48;3.30;99.90
21906;DHT22;11117;48.644;9.006;2022-12-07T04:57:13;3.40;99.90
21906;DHT22;11117;48.644;9.006;2022-12-07T04:59:39;3.40;99.90
21906;DHT22;11117;48.644;9.006;2022-12-07T05:02:04;3.40;99.90
21906;DHT22;11117;48.644;9.006;2022-12-07T05:04:30;3.40;99.90
21906;DHT22;11117;48.644;9.006;2022-12-07T05:06:57;3.50;99.90
21906;DHT22;11117;48.644;9.006;2022-12-07T05:09:23;3.40;99.90
21906;DHT22;11117;48.644;9.006;2022-12-07T05:11:48;3.30;99.90
21906;DHT22;11117;48.644;9.006;2022-12-07T05:14:19;3.20;99.90
21906;DHT22;11117;48.644;9.006;2022-12-07T05:16:47;3.10;99.90
21906;DHT22;11117;48.644;9.006;2022-12-07T05:19:13;3.10;99.90
21906;DHT22;11117;48.644;9.006;2022-12-07T05:21:39;3.00;99.90
21906;DHT22;11117;48.644;9.006;2022-12-07T05:24:06;3.00;99.90
21906;DHT22;11117;48.644;9.006;2022-12-07T05:26:32;3.00;99.90
21906;DHT22;11117;48.644;9.006;2022-12-07T05:28:58;3.00;99.90
21906;DHT22;11117;48.644;9.006;2022-12-07T05:31:26;3.00;99.90
21906;DHT22;11117;48.644;9.006;2022-12-07T05:33:52;3.10;99.90
21906;DHT22;11117;48.644;9.006;2022-12-07T05:36:18;3.00;99.90
21906;DHT22;11117;48.644;9.006;2022-12-07T05:38:44;3.00;99.90
21906;DHT22;11117;48.644;9.006;2022-12-07T05:41:14;2.90;99.90
21906;DHT22;11117;48.644;9.006;2022-12-07T05:43:39;2.80;99.90
21906;DHT22;11117;48.644;9.006;2022-12-07T05:46:05;2.60;99.90
21906;DHT22;11117;48.644;9.006;2022-12-07T05:48:30;2.60;99.90
21906;DHT22;11117;48.644;9.006;2022-12-07T05:50:56;2.50;99.90
21906;DHT22;11117;48.644;9.006;2022-12-07T05:53:21;2.40;99.90
21906;DHT22;11117;48.644;9.006;2022-12-07T05:55:47;2.30;99.90
21906;DHT22;11117;48.644;9.006;2022-12-07T05:58:12;2.20;99.90
21906;DHT22;11117;48.644;9.006;2022-12-07T06:00:38;1.90;99.90
21906;DHT22;11117;48.644;9.006;2022-12-07T06:03:03;1.70;99.90
21906;DHT22;11117;48.644;9.006;2022-12-07T06:05:29;1.70;99.90
21906;DHT22;11117;48.644;9.006;2022-12-07T06:07:54;1.40;99.90
21906;DHT22;11117;48.644;9.006;2022-12-07T06:10:20;1.40;99.90
21906;DHT22;11117;48.644;9.006;2022-12-07T06:12:45;1.30;99.90
21906;DHT22;11117;48.644;9.006;2022-12-07T06:15:11;1.20;99.90
21906;DHT22;11117;48.644;9.006;2022-12-07T06:17:37;1.20;99.90
21906;DHT22;11117;48.644;9.006;2022-12-07T06:20:03;1.10;99.90
21906;DHT22;11117;48.644;9.006;2022-12-07T06:22:29;1.10;99.90
21906;DHT22;11117;48.644;9.006;2022-12-07T06:24:54;1.00;99.90
21906;DHT22;11117;48.644;9.006;2022-12-07T06:27:20;0.90;99.90
21906;DHT22;11117;48.644;9.006;2022-12-07T06:29:45;0.70;99.90
21906;DHT22;11117;48.644;9.006;2022-12-07T06:32:11;0.70;99.90
21906;DHT22;11117;48.644;9.006;2022-12-07T06:34:37;0.60;99.90
21906;DHT22;11117;48.644;9.006;2022-12-07T06:37:02;0.60;99.90
21906;DHT22;11117;48.644;9.006;2022-12-07T06:39:28;0.70;99.90
21906;DHT22;11117;48.644;9.006;2022-12-07T06:41:55;0.80;99.90
21906;DHT22;11117;48.644;9.006;2022-12-07T06:44:21;0.90;99.90
21906;DHT22;11117;48.644;9.006;2022-12-07T06:46:47;1.10;99.90
21906;DHT22;11117;48.644;9.006;2022-12-07T06:49:13;1.10;99.90
21906;DHT22;11117;48.644;9.006;2022-12-07T06:51:38;1.10;99.90
21906;DHT22;11117;48.644;9.006;2022-12-07T06:54:04;1.10;99.90
21906;DHT22;11117;48.644;9.006;2022-12-07T06:56:30;1.10;99.90
21906;DHT22;11117;48.644;9.006;2022-12-07T06:58:55;1.20;99.90
21906;DHT22;11117;48.644;9.006;2022-12-07T07:01:21;1.40;99.90
21906;DHT22;11117;48.644;9.006;2022-12-07T07:03:47;1.40;99.90
21906;DHT22;11117;48.644;9.006;2022-12-07T07:06:13;1.40;99.90
21906;DHT22;11117;48.644;9.006;2022-12-07T07:08:39;1.40;99.90
21906;DHT22;11117;48.644;9.006;2022-12-07T07:11:06;1.40;99.90
21906;DHT22;11117;48.644;9.006;2022-12-07T07:13:32;1.40;99.90
21906;DHT22;11117;48.644;9.006;2022-12-07T07:15:58;1.30;99.90
21906;DHT22;11117;48.644;9.006;2022-12-07T07:18:24;1.40;99.90
21906;DHT22;11117;48.644;9.006;2022-12-07T07:20:53;1.50;99.90
21906;DHT22;11117;48.644;9.006;2022-12-07T07:23:19;1.60;99.90
21906;DHT22;11117;48.644;9.006;2022-12-07T07:25:46;1.80;99.90
21906;DHT22;11117;48.644;9.006;2022-12-07T07:28:11;2.00;99.90
21906;DHT22;11117;48.644;9.006;2022-12-07T07:30:37;2.10;99.90
21906;DHT22;11117;48.644;9.006;2022-12-07T07:33:03;2.20;99.90
21906;DHT22;11117;48.644;9.006;2022-12-07T07:35:31;2.40;99.90
21906;DHT22;11117;48.644;9.006;2022-12-07T07:37:57;2.50;99.90
21906;DHT22;11117;48.644;9.006;2022-12-07T07:40:23;2.40;99.90
21906;DHT22;11117;48.644;9.006;2022-12-07T07:42:50;2.30;99.90
21906;DHT22;11117;48.644;9.006;2022-12-07T07:45:16;2.20;99.90
21906;DHT22;11117;48.644;9.006;2022-12-07T07:47:42;2.10;99.90
21906;DHT22;11117;48.644;9.006;2022-12-07T07:50:08;2.40;99.90
21906;DHT22;11117;48.644;9.006;2022-12-07T07:52:33;2.60;99.90
21906;DHT22;11117;48.644;9.006;2022-12-07T07:54:59;2.60;99.90
21906;DHT22;11117;48.644;9.006;2022-12-07T07:57:25;2.40;99.90
21906;DHT22;11117;48.644;9.006;2022-12-07T07:59:50;2.30;99.90
21906;DHT22;11117;48.644;9.006;2022-12-07T08:02:18;2.20;99.90
21906;DHT22;11117;48.644;9.006;2022-12-07T08:04:44;2.20;99.90
21906;DHT22;11117;48.644;9.006;2022-12-07T08:07:10;2.20;99.90
21906;DHT22;11117;48.644;9.006;2022-12-07T08:09:36;2.30;99.90
21906;DHT22;11117;48.644;9.006;2022-12-07T08:12:02;2.30;99.90
21906;DHT22;11117;48.644;9.006;2022-12-07T08:14:27;2.40;99.90
21906;DHT22;11117;48.644;9.006;2022-12-07T08:16:53;2.50;99.90
21906;DHT22;11117;48.644;9.006;2022-12-07T08:19:19;2.60;99.90
21906;DHT22;11117;48.644;9.006;2022-12-07T08:21:44;2.70;99.90
21906;DHT22;11117;48.644;9.006;2022-12-07T08:24:10;2.80;99.90
21906;DHT22;11117;48.644;9.006;2022-12-07T08:26:35;3.00;99.90
21906;DHT22;11117;48.644;9.006;2022-12-07T08:29:01;3.10;99.90
21906;DHT22;11117;48.644;9.006;2022-12-07T08:31:27;3.30;99.90
21906;DHT22;11117;48.644;9.006;2022-12-07T08:33:53;3.40;99.90
21906;DHT22;11117;48.644;9.006;2022-12-07T08:36:18;3.60;99.90
21906;DHT22;11117;48.644;9.006;2022-12-07T08:38:44;3.70;99.90
21906;DHT22;11117;48.644;9.006;2022-12-07T08:41:10;3.80;99.90
21906;DHT22;11117;48.644;9.006;2022-12-07T08:43:36;3.90;99.90
21906;DHT22;11117;48.644;9.006;2022-12-07T08:48:54;4.10;99.90
21906;DHT22;11117;48.644;9.006;2022-12-07T08:51:21;4.20;99.90
21906;DHT22;11117;48.644;9.006;2022-12-07T08:53:48;4.20;99.90
21906;DHT22;11117;48.644;9.006;2022-12-07T08:56:15;4.20;99.90
21906;DHT22;11117;48.644;9.006;2022-12-07T08:58:41;4.30;99.90
21906;DHT22;11117;48.644;9.006;2022-12-07T09:01:06;4.30;99.90
21906;DHT22;11117;48.644;9.006;2022-12-07T09:03:34;4.40;99.90
21906;DHT22;11117;48.644;9.006;2022-12-07T09:06:00;4.60;99.90
21906;DHT22;11117;48.644;9.006;2022-12-07T09:08:38;4.70;99.90
21906;DHT22;11117;48.644;9.006;2022-12-07T09:11:05;4.80;99.90
21906;DHT22;11117;48.644;9.006;2022-12-07T09:13:30;4.90;99.90
21906;DHT22;11117;48.644;9.006;2022-12-07T09:15:56;5.00;99.90
21906;DHT22;11117;48.644;9.006;2022-12-07T09:18:21;4.90;99.90
21906;DHT22;11117;48.644;9.006;2022-12-07T09:20:47;4.80;99.90
21906;DHT22;11117;48.644;9.006;2022-12-07T09:23:12;5.00;99.90
21906;DHT22;11117;48.644;9.006;2022-12-07T09:25:38;5.10;99.90
21906;DHT22;11117;48.644;9.006;2022-12-07T09:28:03;5.20;99.90
21906;DHT22;11117;48.644;9.006;2022-12-07T09:30:29;5.30;99.90
21906;DHT22;11117;48.644;9.006;2022-12-07T09:32:56;5.40;99.90
21906;DHT22;11117;48.644;9.006;2022-12-07T09:35:23;5.40;99.90
21906;DHT22;11117;48.644;9.006;2022-12-07T09:37:49;5.50;99.90
21906;DHT22;11117;48.644;9.006;2022-12-07T09:40:16;5.60;99.90
21906;DHT22;11117;48.644;9.006;2022-12-07T09:42:44;5.70;99.90
21906;DHT22;11117;48.644;9.006;2022-12-07T09:45:18;5.70;99.90
21906;DHT22;11117;48.644;9.006;2022-12-07T09:47:45;5.80;99.90
21906;DHT22;11117;48.644;9.006;2022-12-07T09:50:18;5.90;99.90
21906;DHT22;11117;48.644;9.006;2022-12-07T09:52:45;5.70;99.90
21906;DHT22;11117;48.644;9.006;2022-12-07T09:55:19;5.80;99.90
21906;DHT22;11117;48.644;9.006;2022-12-07T09:57:48;5.90;99.90
21906;DHT22;11117;48.644;9.006;2022-12-07T10:00:16;6.00;99.90
21906;DHT22;11117;48.644;9.006;2022-12-07T10:02:44;6.10;99.90
21906;DHT22;11117;48.644;9.006;2022-12-07T10:05:34;6.20;99.90
21906;DHT22;11117;48.644;9.006;2022-12-07T10:08:01;6.30;99.90
21906;DHT22;11117;48.644;9.006;2022-12-07T10:10:31;6.40;99.90
21906;DHT22;11117;48.644;9.006;2022-12-07T10:15:51;6.50;99.90
21906;DHT22;11117;48.644;9.006;2022-12-07T10:21:15;6.60;99.90
21906;DHT22;11117;48.644;9.006;2022-12-07T10:24:05;6.70;99.90
21906;DHT22;11117;48.644;9.006;2022-12-07T10:26:34;6.60;99.90
21906;DHT22;11117;48.644;9.006;2022-12-07T10:29:04;6.70;99.90
21906;DHT22;11117;48.644;9.006;2022-12-07T10:31:39;6.80;99.90
21906;DHT22;11117;48.644;9.006;2022-12-07T10:34:29;6.90;99.90
21906;DHT22;11117;48.644;9.006;2022-12-07T10:39:50;7.00;99.90
21906;DHT22;11117;48.644;9.006;2022-12-07T10:42:19;7.00;99.90
21906;DHT22;11117;48.644;9.006;2022-12-07T10:44:45;7.10;99.90
21906;DHT22;11117;48.644;9.006;2022-12-07T11:00:17;7.00;99.90
21906;DHT22;11117;48.644;9.006;2022-12-07T11:03:32;7.10;99.90
21906;DHT22;11117;48.644;9.006;2022-12-07T11:08:38;6.80;99.90
21906;DHT22;11117;48.644;9.006;2022-12-07T11:11:19;6.70;99.90
21906;DHT22;11117;48.644;9.006;2022-12-07T11:13:58;6.60;99.90
21906;DHT22;11117;48.644;9.006;2022-12-07T11:16:50;6.80;99.90
21906;DHT22;11117;48.644;9.006;2022-12-07T11:19:39;6.90;99.90
21906;DHT22;11117;48.644;9.006;2022-12-07T11:22:49;6.90;99.90
21906;DHT22;11117;48.644;9.006;2022-12-07T11:31:28;6.60;99.90
21906;DHT22;11117;48.644;9.006;2022-12-07T11:36:43;6.70;99.90
21906;DHT22;11117;48.644;9.006;2022-12-07T11:41:54;6.10;99.90
21906;DHT22;11117;48.644;9.006;2022-12-07T11:44:53;6.00;99.90
21906;DHT22;11117;48.644;9.006;2022-12-07T11:47:25;6.40;99.90
21906;DHT22;11117;48.644;9.006;2022-12-07T11:58:48;6.30;99.90
21906;DHT22;11117;48.644;9.006;2022-12-07T12:06:28;6.10;99.90
21906;DHT22;11117;48.644;9.006;2022-12-07T12:09:03;5.90;99.90
21906;DHT22;11117;48.644;9.006;2022-12-07T12:12:12;5.90;99.90
21906;DHT22;11117;48.644;9.006;2022-12-07T12:17:50;6.00;99.90
21906;DHT22;11117;48.644;9.006;2022-12-07T12:23:11;6.00;99.90
21906;DHT22;11117;48.644;9.006;2022-12-07T12:25:50;6.00;99.90
21906;DHT22;11117;48.644;9.006;2022-12-07T12:28:35;5.90;99.90
21906;DHT22;11117;48.644;9.006;2022-12-07T12:33:55;5.60;99.90
21906;DHT22;11117;48.644;9.006;2022-12-07T12:36:23;5.70;99.90
21906;DHT22;11117;48.644;9.006;2022-12-07T12:44:03;5.70;99.90
21906;DHT22;11117;48.644;9.006;2022-12-07T12:51:54;5.30;99.90
21906;DHT22;11117;48.644;9.006;2022-12-07T12:54:22;5.50;99.90
21906;DHT22;11117;48.644;9.006;2022-12-07T12:57:03;5.50;99.90
21906;DHT22;11117;48.644;9.006;2022-12-07T13:15:48;5.50;99.90
21906;DHT22;11117;48.644;9.006;2022-12-07T13:23:58;5.40;99.90
21906;DHT22;11117;48.644;9.006;2022-12-07T13:29:18;5.10;99.90
21906;DHT22;11117;48.644;9.006;2022-12-07T13:31:50;4.90;99.90
21906;DHT22;11117;48.644;9.006;2022-12-07T13:34:33;5.10;99.90
21906;DHT22;11117;48.644;9.006;2022-12-07T13:40:17;5.00;99.90
21906;DHT22;11117;48.644;9.006;2022-12-07T13:42:41;5.00;99.90
21906;DHT22;11117;48.644;9.006;2022-12-07T13:45:26;5.00;99.90
21906;DHT22;11117;48.644;9.006;2022-12-07T13:47:53;4.90;99.90
21906;DHT22;11117;48.644;9.006;2022-12-07T13:50:31;4.80;99.90
21906;DHT22;11117;48.644;9.006;2022-12-07T13:53:01;4.70;99.90
21906;DHT22;11117;48.644;9.006;2022-12-07T13:55:30;4.90;99.90
21906;DHT22;11117;48.644;9.006;2022-12-07T13:57:56;4.80;99.90
21906;DHT22;11117;48.644;9.006;2022-12-07T14:00:27;4.70;99.90
21906;DHT22;11117;48.644;9.006;2022-12-07T14:05:26;4.40;99.90
21906;DHT22;11117;48.644;9.006;2022-12-07T14:10:52;4.40;99.90
21906;DHT22;11117;48.644;9.006;2022-12-07T14:16:01;4.50;99.90
21906;DHT22;11117;48.644;9.006;2022-12-07T14:18:30;4.60;99.90
21906;DHT22;11117;48.644;9.006;2022-12-07T14:23:30;4.70;99.90
21906;DHT22;11117;48.644;9.006;2022-12-07T14:26:13;4.60;99.90
21906;DHT22;11117;48.644;9.006;2022-12-07T14:28:40;4.60;99.90
21906;DHT22;11117;48.644;9.006;2022-12-07T14:31:24;4.60;99.90
21906;DHT22;11117;48.644;9.006;2022-12-07T14:33:50;4.70;99.90
21906;DHT22;11117;48.644;9.006;2022-12-07T14:36:15;4.80;99.90
21906;DHT22;11117;48.644;9.006;2022-12-07T14:38:41;4.80;99.90
21906;DHT22;11117;48.644;9.006;2022-12-07T14:41:14;4.80;99.90
21906;DHT22;11117;48.644;9.006;2022-12-07T14:43:40;4.90;99.90
21906;DHT22;11117;48.644;9.006;2022-12-07T14:46:06;4.90;99.90
21906;DHT22;11117;48.644;9.006;2022-12-07T14:48:31;4.90;99.90
21906;DHT22;11117;48.644;9.006;2022-12-07T14:50:57;4.90;99.90
21906;DHT22;11117;48.644;9.006;2022-12-07T14:53:36;4.80;99.90
21906;DHT22;11117;48.644;9.006;2022-12-07T14:56:07;4.50;99.90
21906;DHT22;11117;48.644;9.006;2022-12-07T14:58:32;4.30;99.90
21906;DHT22;11117;48.644;9.006;2022-12-07T15:00:58;4.30;99.90
21906;DHT22;11117;48.644;9.006;2022-12-07T15:03:24;4.30;99.90
21906;DHT22;11117;48.644;9.006;2022-12-07T15:05:50;4.30;99.90
21906;DHT22;11117;48.644;9.006;2022-12-07T15:08:15;4.20;99.90
21906;DHT22;11117;48.644;9.006;2022-12-07T15:10:41;4.30;99.90
21906;DHT22;11117;48.644;9.006;2022-12-07T15:13:07;4.20;99.90
21906;DHT22;11117;48.644;9.006;2022-12-07T15:15:33;4.30;99.90
21906;DHT22;11117;48.644;9.006;2022-12-07T15:17:59;4.40;99.90
21906;DHT22;11117;48.644;9.006;2022-12-07T15:20:24;4.40;99.90
21906;DHT22;11117;48.644;9.006;2022-12-07T15:22:50;4.50;99.90
21906;DHT22;11117;48.644;9.006;2022-12-07T15:25:15;4.50;99.90
21906;DHT22;11117;48.644;9.006;2022-12-07T15:27:41;4.50;99.90
21906;DHT22;11117;48.644;9.006;2022-12-07T15:30:07;4.40;99.90
21906;DHT22;11117;48.644;9.006;2022-12-07T15:32:32;4.40;99.90
21906;DHT22;11117;48.644;9.006;2022-12-07T15:34:58;4.40;99.90
21906;DHT22;11117;48.644;9.006;2022-12-07T15:37:23;4.30;99.90
21906;DHT22;11117;48.644;9.006;2022-12-07T15:39:49;4.30;99.90
21906;DHT22;11117;48.644;9.006;2022-12-07T15:42:15;4.30;99.90
21906;DHT22;11117;48.644;9.006;2022-12-07T15:44:40;4.30;99.90
21906;DHT22;11117;48.644;9.006;2022-12-07T15:47:06;4.10;99.90
21906;DHT22;11117;48.644;9.006;2022-12-07T15:49:31;4.00;99.90
21906;DHT22;11117;48.644;9.006;2022-12-07T15:51:57;4.00;99.90
21906;DHT22;11117;48.644;9.006;2022-12-07T15:54:27;3.90;99.90
21906;DHT22;11117;48.644;9.006;2022-12-07T15:56:54;3.80;99.90
21906;DHT22;11117;48.644;9.006;2022-12-07T15:59:19;3.70;99.90
21906;DHT22;11117;48.644;9.006;2022-12-07T16:01:45;3.50;99.90
21906;DHT22;11117;48.644;9.006;2022-12-07T16:04:11;3.40;99.90
21906;DHT22;11117;48.644;9.006;2022-12-07T16:06:37;3.30;99.90
21906;DHT22;11117;48.644;9.006;2022-12-07T16:09:02;3.10;99.90
21906;DHT22;11117;48.644;9.006;2022-12-07T16:11:28;3.10;99.90
21906;DHT22;11117;48.644;9.006;2022-12-07T16:13:54;2.90;99.90
21906;DHT22;11117;48.644;9.006;2022-12-07T16:16:20;3.00;99.90
21906;DHT22;11117;48.644;9.006;2022-12-07T16:18:46;2.90;99.90
21906;DHT22;11117;48.644;9.006;2022-12-07T16:21:13;3.00;99.90
21906;DHT22;11117;48.644;9.006;2022-12-07T16:23:39;3.00;99.90
21906;DHT22;11117;48.644;9.006;2022-12-07T16:26:13;2.90;99.90
21906;DHT22;11117;48.644;9.006;2022-12-07T16:28:39;3.00;99.90
21906;DHT22;11117;48.644;9.006;2022-12-07T16:31:08;3.00;99.90
21906;DHT22;11117;48.644;9.006;2022-12-07T16:33:34;2.90;99.90
21906;DHT22;11117;48.644;9.006;2022-12-07T16:36:00;3.00;99.90
21906;DHT22;11117;48.644;9.006;2022-12-07T16:38:26;3.00;99.90
21906;DHT22;11117;48.644;9.006;2022-12-07T16:40:51;3.00;99.90
21906;DHT22;11117;48.644;9.006;2022-12-07T16:43:17;3.20;99.90
21906;DHT22;11117;48.644;9.006;2022-12-07T16:45:42;3.10;99.90
21906;DHT22;11117;48.644;9.006;2022-12-07T16:48:08;3.10;99.90
21906;DHT22;11117;48.644;9.006;2022-12-07T16:50:34;3.10;99.90
21906;DHT22;11117;48.644;9.006;2022-12-07T16:52:59;3.20;99.90
21906;DHT22;11117;48.644;9.006;2022-12-07T16:55:25;3.20;99.90
21906;DHT22;11117;48.644;9.006;2022-12-07T16:57:50;3.20;99.90
21906;DHT22;11117;48.644;9.006;2022-12-07T17:00:16;3.20;99.90
21906;DHT22;11117;48.644;9.006;2022-12-07T17:02:42;3.30;99.90
21906;DHT22;11117;48.644;9.006;2022-12-07T17:05:07;3.20;99.90
21906;DHT22;11117;48.644;9.006;2022-12-07T17:07:33;3.10;99.90
21906;DHT22;11117;48.644;9.006;2022-12-07T17:09:59;3.00;99.90
21906;DHT22;11117;48.644;9.006;2022-12-07T17:12:24;3.00;99.90
21906;DHT22;11117;48.644;9.006;2022-12-07T17:14:50;3.00;99.90
21906;DHT22;11117;48.644;9.006;2022-12-07T17:17:16;3.00;99.90
21906;DHT22;11117;48.644;9.006;2022-12-07T17:19:41;3.20;99.90
21906;DHT22;11117;48.644;9.006;2022-12-07T17:22:07;3.30;99.90
21906;DHT22;11117;48.644;9.006;2022-12-07T17:24:58;3.30;99.90
21906;DHT22;11117;48.644;9.006;2022-12-07T17:27:23;3.40;99.90
21906;DHT22;11117;48.644;9.006;2022-12-07T17:29:49;3.30;99.90
21906;DHT22;11117;48.644;9.006;2022-12-07T17:32:14;3.40;99.90
21906;DHT22;11117;48.644;9.006;2022-12-07T17:34:40;3.40;99.90
21906;DHT22;11117;48.644;9.006;2022-12-07T17:37:06;3.30;99.90
21906;DHT22;11117;48.644;9.006;2022-12-07T17:39:31;3.20;99.90
21906;DHT22;11117;48.644;9.006;2022-12-07T17:41:57;3.20;99.90
21906;DHT22;11117;48.644;9.006;2022-12-07T17:44:23;3.00;99.90
21906;DHT22;11117;48.644;9.006;2022-12-07T17:46:51;2.80;99.90
21906;DHT22;11117;48.644;9.006;2022-12-07T17:49:17;2.70;99.90
21906;DHT22;11117;48.644;9.006;2022-12-07T17:51:42;2.60;99.90
21906;DHT22;11117;48.644;9.006;2022-12-07T17:54:08;2.60;99.90
21906;DHT22;11117;48.644;9.006;2022-12-07T17:56:34;2.60;99.90
21906;DHT22;11117;48.644;9.006;2022-12-07T17:59:02;2.50;99.90
21906;DHT22;11117;48.644;9.006;2022-12-07T18:01:53;2.60;99.90
21906;DHT22;11117;48.644;9.006;2022-12-07T18:04:18;2.50;99.90
21906;DHT22;11117;48.644;9.006;2022-12-07T18:06:44;2.50;99.90
21906;DHT22;11117;48.644;9.006;2022-12-07T18:09:10;2.60;99.90
21906;DHT22;11117;48.644;9.006;2022-12-07T18:11:36;2.50;99.90
21906;DHT22;11117;48.644;9.006;2022-12-07T18:14:02;2.50;99.90